sensor_id;sensor_type;location;lat;lon;timestamp;P1;durP1;ratioP1;P2;durP2;ratioP2
57746;SDS011;43580;44.014;20.466;2022-07-29T00:00:10;12.23;;;8.68;;
57746;SDS011;43580;44.014;20.466;2022-07-29T00:02:36;10.20;;;8.48;;
57746;SDS011;43580;44.014;20.466;2022-07-29T00:05:03;11.10;;;8.50;;
57746;SDS011;43580;44.014;20.466;2022-07-29T00:07:30;13.02;;;8.45;;
57746;SDS011;43580;44.014;20.466;2022-07-29T00:09:56;11.73;;;7.90;;
57746;SDS011;43580;44.014;20.466;2022-07-29T00:12:23;13.85;;;8.57;;
57746;SDS011;43580;44.014;20.466;2022-07-29T00:14:51;12.20;;;9.15;;
57746;SDS011;43580;44.014;20.466;2022-07-29T00:17:17;12.93;;;8.38;;
57746;SDS011;43580;44.014;20.466;2022-07-29T00:19:43;11.50;;;8.68;;
57746;SDS011;43580;44.014;20.466;2022-07-29T00:22:11;9.73;;;8.35;;
57746;SDS011;43580;44.014;20.466;2022-07-29T00:24:38;10.93;;;8.43;;
57746;SDS011;43580;44.014;20.466;2022-07-29T00:27:04;13.52;;;8.63;;
57746;SDS011;43580;44.014;20.466;2022-07-29T00:29:30;11.90;;;8.25;;
57746;SDS011;43580;44.014;20.466;2022-07-29T00:31:56;13.20;;;8.15;;
57746;SDS011;43580;44.014;20.466;2022-07-29T00:34:22;13.00;;;8.57;;
57746;SDS011;43580;44.014;20.466;2022-07-29T00:37:07;13.48;;;9.10;;
57746;SDS011;43580;44.014;20.466;2022-07-29T00:39:33;16.33;;;9.27;;
57746;SDS011;43580;44.014;20.466;2022-07-29T00:42:01;14.00;;;8.73;;
57746;SDS011;43580;44.014;20.466;2022-07-29T00:44:27;14.77;;;9.20;;
57746;SDS011;43580;44.014;20.466;2022-07-29T00:46:53;19.88;;;8.93;;
57746;SDS011;43580;44.014;20.466;2022-07-29T00:49:19;16.85;;;9.05;;
57746;SDS011;43580;44.014;20.466;2022-07-29T00:51:45;14.15;;;8.80;;
57746;SDS011;43580;44.014;20.466;2022-07-29T00:54:12;12.77;;;8.90;;
57746;SDS011;43580;44.014;20.466;2022-07-29T00:56:38;13.57;;;9.05;;
57746;SDS011;43580;44.014;20.466;2022-07-29T00:59:04;12.55;;;9.48;;
57746;SDS011;43580;44.014;20.466;2022-07-29T01:01:30;14.27;;;8.63;;
57746;SDS011;43580;44.014;20.466;2022-07-29T01:03:56;13.85;;;9.30;;
57746;SDS011;43580;44.014;20.466;2022-07-29T01:06:22;13.65;;;9.40;;
57746;SDS011;43580;44.014;20.466;2022-07-29T01:08:50;13.82;;;8.48;;
57746;SDS011;43580;44.014;20.466;2022-07-29T01:11:16;13.32;;;8.85;;
57746;SDS011;43580;44.014;20.466;2022-07-29T01:13:43;11.32;;;9.02;;
57746;SDS011;43580;44.014;20.466;2022-07-29T01:16:15;13.38;;;8.75;;
57746;SDS011;43580;44.014;20.466;2022-07-29T01:18:44;9.77;;;8.32;;
57746;SDS011;43580;44.014;20.466;2022-07-29T01:21:16;15.60;;;8.50;;
57746;SDS011;43580;44.014;20.466;2022-07-29T01:23:52;13.10;;;9.38;;
57746;SDS011;43580;44.014;20.466;2022-07-29T01:31:11;12.02;;;8.63;;
57746;SDS011;43580;44.014;20.466;2022-07-29T01:33:41;12.70;;;9.52;;
57746;SDS011;43580;44.014;20.466;2022-07-29T01:36:19;15.05;;;9.90;;
57746;SDS011;43580;44.014;20.466;2022-07-29T01:38:53;14.35;;;9.18;;
57746;SDS011;43580;44.014;20.466;2022-07-29T01:41:20;9.93;;;8.90;;
57746;SDS011;43580;44.014;20.466;2022-07-29T01:43:51;11.45;;;8.68;;
57746;SDS011;43580;44.014;20.466;2022-07-29T01:46:31;11.80;;;9.05;;
57746;SDS011;43580;44.014;20.466;2022-07-29T01:49:06;14.60;;;8.98;;
57746;SDS011;43580;44.014;20.466;2022-07-29T01:51:44;15.07;;;9.57;;
57746;SDS011;43580;44.014;20.466;2022-07-29T01:54:32;13.27;;;8.80;;
57746;SDS011;43580;44.014;20.466;2022-07-29T01:57:00;16.38;;;10.82;;
57746;SDS011;43580;44.014;20.466;2022-07-29T01:59:26;12.65;;;9.88;;
57746;SDS011;43580;44.014;20.466;2022-07-29T02:01:53;15.70;;;10.23;;
57746;SDS011;43580;44.014;20.466;2022-07-29T02:04:19;12.68;;;9.57;;
57746;SDS011;43580;44.014;20.466;2022-07-29T02:06:46;12.90;;;9.63;;
57746;SDS011;43580;44.014;20.466;2022-07-29T02:09:14;14.38;;;8.93;;
57746;SDS011;43580;44.014;20.466;2022-07-29T02:11:40;16.35;;;10.27;;
57746;SDS011;43580;44.014;20.466;2022-07-29T02:14:11;11.27;;;10.05;;
57746;SDS011;43580;44.014;20.466;2022-07-29T02:16:39;12.43;;;9.45;;
57746;SDS011;43580;44.014;20.466;2022-07-29T02:19:06;12.77;;;8.48;;
57746;SDS011;43580;44.014;20.466;2022-07-29T02:21:33;10.85;;;8.88;;
57746;SDS011;43580;44.014;20.466;2022-07-29T02:24:03;12.32;;;8.52;;
57746;SDS011;43580;44.014;20.466;2022-07-29T02:26:30;12.05;;;9.05;;
57746;SDS011;43580;44.014;20.466;2022-07-29T02:28:57;10.88;;;8.73;;
57746;SDS011;43580;44.014;20.466;2022-07-29T02:31:25;14.10;;;9.70;;
57746;SDS011;43580;44.014;20.466;2022-07-29T02:33:52;11.82;;;8.75;;
57746;SDS011;43580;44.014;20.466;2022-07-29T02:36:21;12.38;;;9.10;;
57746;SDS011;43580;44.014;20.466;2022-07-29T02:38:50;14.20;;;9.45;;
57746;SDS011;43580;44.014;20.466;2022-07-29T02:41:18;12.63;;;9.75;;
57746;SDS011;43580;44.014;20.466;2022-07-29T02:43:45;13.82;;;8.80;;
57746;SDS011;43580;44.014;20.466;2022-07-29T02:46:16;15.10;;;9.98;;
57746;SDS011;43580;44.014;20.466;2022-07-29T02:48:50;12.95;;;9.75;;
57746;SDS011;43580;44.014;20.466;2022-07-29T02:51:23;12.52;;;9.80;;
57746;SDS011;43580;44.014;20.466;2022-07-29T02:53:51;17.25;;;10.50;;
57746;SDS011;43580;44.014;20.466;2022-07-29T02:56:17;11.85;;;9.60;;
57746;SDS011;43580;44.014;20.466;2022-07-29T02:58:47;16.58;;;9.80;;
57746;SDS011;43580;44.014;20.466;2022-07-29T03:01:16;12.15;;;10.00;;
57746;SDS011;43580;44.014;20.466;2022-07-29T03:03:43;15.25;;;9.75;;
57746;SDS011;43580;44.014;20.466;2022-07-29T03:06:10;16.92;;;9.65;;
57746;SDS011;43580;44.014;20.466;2022-07-29T03:08:37;13.77;;;9.27;;
57746;SDS011;43580;44.014;20.466;2022-07-29T03:11:04;14.15;;;9.23;;
57746;SDS011;43580;44.014;20.466;2022-07-29T03:13:30;11.18;;;9.15;;
57746;SDS011;43580;44.014;20.466;2022-07-29T03:15:58;15.30;;;10.63;;
57746;SDS011;43580;44.014;20.466;2022-07-29T03:18:25;15.38;;;10.35;;
57746;SDS011;43580;44.014;20.466;2022-07-29T03:20:51;15.23;;;10.40;;
57746;SDS011;43580;44.014;20.466;2022-07-29T03:23:21;16.00;;;10.15;;
57746;SDS011;43580;44.014;20.466;2022-07-29T03:25:49;13.18;;;9.48;;
57746;SDS011;43580;44.014;20.466;2022-07-29T03:28:19;13.15;;;10.02;;
57746;SDS011;43580;44.014;20.466;2022-07-29T03:30:45;13.57;;;10.25;;
57746;SDS011;43580;44.014;20.466;2022-07-29T03:33:12;12.85;;;10.68;;
57746;SDS011;43580;44.014;20.466;2022-07-29T03:35:38;14.60;;;10.15;;
57746;SDS011;43580;44.014;20.466;2022-07-29T03:38:04;14.32;;;10.45;;
57746;SDS011;43580;44.014;20.466;2022-07-29T03:40:31;13.68;;;10.73;;
57746;SDS011;43580;44.014;20.466;2022-07-29T03:42:59;12.60;;;9.80;;
57746;SDS011;43580;44.014;20.466;2022-07-29T03:45:26;14.50;;;9.45;;
57746;SDS011;43580;44.014;20.466;2022-07-29T03:47:53;12.32;;;10.05;;
57746;SDS011;43580;44.014;20.466;2022-07-29T03:50:20;13.75;;;9.65;;
57746;SDS011;43580;44.014;20.466;2022-07-29T03:52:47;12.63;;;9.90;;
57746;SDS011;43580;44.014;20.466;2022-07-29T03:55:14;14.20;;;11.48;;
57746;SDS011;43580;44.014;20.466;2022-07-29T03:57:40;11.88;;;10.63;;
57746;SDS011;43580;44.014;20.466;2022-07-29T04:00:06;16.92;;;12.02;;
57746;SDS011;43580;44.014;20.466;2022-07-29T04:02:33;15.40;;;11.35;;
57746;SDS011;43580;44.014;20.466;2022-07-29T04:04:59;15.32;;;10.98;;
57746;SDS011;43580;44.014;20.466;2022-07-29T04:07:25;16.15;;;10.35;;
57746;SDS011;43580;44.014;20.466;2022-07-29T04:09:51;15.38;;;10.27;;
57746;SDS011;43580;44.014;20.466;2022-07-29T04:12:17;14.75;;;10.50;;
57746;SDS011;43580;44.014;20.466;2022-07-29T04:14:46;16.35;;;10.93;;
57746;SDS011;43580;44.014;20.466;2022-07-29T04:17:12;10.90;;;9.50;;
57746;SDS011;43580;44.014;20.466;2022-07-29T04:19:38;12.75;;;9.82;;
57746;SDS011;43580;44.014;20.466;2022-07-29T04:22:04;12.45;;;9.68;;
57746;SDS011;43580;44.014;20.466;2022-07-29T04:24:30;15.93;;;10.13;;
57746;SDS011;43580;44.014;20.466;2022-07-29T04:26:59;14.60;;;9.80;;
57746;SDS011;43580;44.014;20.466;2022-07-29T04:29:25;15.18;;;10.20;;
57746;SDS011;43580;44.014;20.466;2022-07-29T04:31:51;12.18;;;10.15;;
57746;SDS011;43580;44.014;20.466;2022-07-29T04:34:17;18.20;;;13.57;;
57746;SDS011;43580;44.014;20.466;2022-07-29T04:36:43;13.10;;;9.85;;
57746;SDS011;43580;44.014;20.466;2022-07-29T04:39:09;13.60;;;9.90;;
57746;SDS011;43580;44.014;20.466;2022-07-29T04:41:35;12.38;;;10.23;;
57746;SDS011;43580;44.014;20.466;2022-07-29T04:44:02;12.07;;;10.27;;
57746;SDS011;43580;44.014;20.466;2022-07-29T04:46:30;16.27;;;10.43;;
57746;SDS011;43580;44.014;20.466;2022-07-29T04:48:56;15.20;;;10.52;;
57746;SDS011;43580;44.014;20.466;2022-07-29T04:51:22;14.93;;;10.10;;
57746;SDS011;43580;44.014;20.466;2022-07-29T04:53:48;14.00;;;10.57;;
57746;SDS011;43580;44.014;20.466;2022-07-29T04:56:14;11.40;;;10.20;;
57746;SDS011;43580;44.014;20.466;2022-07-29T04:58:40;12.48;;;9.68;;
57746;SDS011;43580;44.014;20.466;2022-07-29T05:01:06;15.52;;;10.55;;
57746;SDS011;43580;44.014;20.466;2022-07-29T05:03:35;10.80;;;9.65;;
57746;SDS011;43580;44.014;20.466;2022-07-29T05:06:01;14.02;;;9.90;;
57746;SDS011;43580;44.014;20.466;2022-07-29T05:08:27;15.77;;;9.80;;
57746;SDS011;43580;44.014;20.466;2022-07-29T05:10:53;10.90;;;9.68;;
57746;SDS011;43580;44.014;20.466;2022-07-29T05:13:19;14.10;;;10.27;;
57746;SDS011;43580;44.014;20.466;2022-07-29T05:15:45;15.77;;;10.25;;
57746;SDS011;43580;44.014;20.466;2022-07-29T05:18:11;12.13;;;9.57;;
57746;SDS011;43580;44.014;20.466;2022-07-29T05:20:37;13.95;;;9.88;;
57746;SDS011;43580;44.014;20.466;2022-07-29T05:23:03;12.60;;;10.25;;
57746;SDS011;43580;44.014;20.466;2022-07-29T05:25:29;18.38;;;14.13;;
57746;SDS011;43580;44.014;20.466;2022-07-29T05:27:56;13.82;;;11.45;;
57746;SDS011;43580;44.014;20.466;2022-07-29T05:30:23;14.88;;;10.98;;
57746;SDS011;43580;44.014;20.466;2022-07-29T05:32:51;14.32;;;9.68;;
57746;SDS011;43580;44.014;20.466;2022-07-29T05:35:17;15.02;;;9.85;;
57746;SDS011;43580;44.014;20.466;2022-07-29T05:37:43;15.23;;;10.60;;
57746;SDS011;43580;44.014;20.466;2022-07-29T05:40:09;18.63;;;9.70;;
57746;SDS011;43580;44.014;20.466;2022-07-29T05:42:35;11.43;;;8.98;;
57746;SDS011;43580;44.014;20.466;2022-07-29T05:45:02;12.05;;;9.07;;
57746;SDS011;43580;44.014;20.466;2022-07-29T05:47:28;14.68;;;9.98;;
57746;SDS011;43580;44.014;20.466;2022-07-29T05:49:54;16.27;;;9.20;;
57746;SDS011;43580;44.014;20.466;2022-07-29T05:52:20;12.00;;;9.15;;
57746;SDS011;43580;44.014;20.466;2022-07-29T05:54:46;13.90;;;8.85;;
57746;SDS011;43580;44.014;20.466;2022-07-29T05:57:19;14.15;;;9.38;;
57746;SDS011;43580;44.014;20.466;2022-07-29T05:59:46;11.32;;;9.23;;
57746;SDS011;43580;44.014;20.466;2022-07-29T06:02:13;13.15;;;9.20;;
57746;SDS011;43580;44.014;20.466;2022-07-29T06:04:39;13.25;;;9.13;;
57746;SDS011;43580;44.014;20.466;2022-07-29T06:07:05;14.55;;;8.85;;
57746;SDS011;43580;44.014;20.466;2022-07-29T06:09:31;12.82;;;8.77;;
57746;SDS011;43580;44.014;20.466;2022-07-29T06:11:58;9.68;;;8.18;;
57746;SDS011;43580;44.014;20.466;2022-07-29T06:14:24;13.10;;;8.27;;
57746;SDS011;43580;44.014;20.466;2022-07-29T06:16:51;12.05;;;7.60;;
57746;SDS011;43580;44.014;20.466;2022-07-29T06:19:20;14.35;;;8.18;;
57746;SDS011;43580;44.014;20.466;2022-07-29T06:21:46;11.95;;;8.38;;
57746;SDS011;43580;44.014;20.466;2022-07-29T06:24:13;11.00;;;7.60;;
57746;SDS011;43580;44.014;20.466;2022-07-29T06:26:39;10.75;;;7.45;;
57746;SDS011;43580;44.014;20.466;2022-07-29T06:29:06;13.38;;;8.00;;
57746;SDS011;43580;44.014;20.466;2022-07-29T06:31:32;14.05;;;7.70;;
57746;SDS011;43580;44.014;20.466;2022-07-29T06:33:58;10.73;;;7.20;;
57746;SDS011;43580;44.014;20.466;2022-07-29T06:36:24;10.85;;;7.35;;
57746;SDS011;43580;44.014;20.466;2022-07-29T06:38:50;12.40;;;7.82;;
57746;SDS011;43580;44.014;20.466;2022-07-29T06:41:17;12.55;;;7.10;;
57746;SDS011;43580;44.014;20.466;2022-07-29T06:43:43;10.68;;;7.30;;
57746;SDS011;43580;44.014;20.466;2022-07-29T06:46:11;13.20;;;7.30;;
57746;SDS011;43580;44.014;20.466;2022-07-29T06:48:39;15.43;;;7.45;;
57746;SDS011;43580;44.014;20.466;2022-07-29T06:51:05;47.63;;;9.95;;
57746;SDS011;43580;44.014;20.466;2022-07-29T06:53:32;12.32;;;7.00;;
57746;SDS011;43580;44.014;20.466;2022-07-29T06:55:59;11.35;;;7.20;;
57746;SDS011;43580;44.014;20.466;2022-07-29T06:58:28;7.88;;;6.80;;
57746;SDS011;43580;44.014;20.466;2022-07-29T07:00:54;8.18;;;6.60;;
57746;SDS011;43580;44.014;20.466;2022-07-29T07:03:21;10.30;;;6.40;;
57746;SDS011;43580;44.014;20.466;2022-07-29T07:05:47;10.43;;;6.55;;
57746;SDS011;43580;44.014;20.466;2022-07-29T07:08:13;10.52;;;7.15;;
57746;SDS011;43580;44.014;20.466;2022-07-29T07:10:41;11.45;;;6.68;;
57746;SDS011;43580;44.014;20.466;2022-07-29T07:13:07;8.88;;;7.28;;
57746;SDS011;43580;44.014;20.466;2022-07-29T07:15:33;16.08;;;8.27;;
57746;SDS011;43580;44.014;20.466;2022-07-29T07:18:03;9.90;;;6.60;;
57746;SDS011;43580;44.014;20.466;2022-07-29T07:20:30;10.50;;;7.63;;
57746;SDS011;43580;44.014;20.466;2022-07-29T07:22:56;8.82;;;6.78;;
57746;SDS011;43580;44.014;20.466;2022-07-29T07:25:22;11.20;;;6.90;;
57746;SDS011;43580;44.014;20.466;2022-07-29T07:27:48;11.18;;;6.82;;
57746;SDS011;43580;44.014;20.466;2022-07-29T07:30:15;8.90;;;7.10;;
57746;SDS011;43580;44.014;20.466;2022-07-29T07:32:41;8.10;;;6.47;;
57746;SDS011;43580;44.014;20.466;2022-07-29T07:35:08;9.93;;;6.97;;
57746;SDS011;43580;44.014;20.466;2022-07-29T07:37:34;8.23;;;6.60;;
57746;SDS011;43580;44.014;20.466;2022-07-29T07:40:01;11.65;;;7.25;;
57746;SDS011;43580;44.014;20.466;2022-07-29T07:42:27;12.00;;;5.97;;
57746;SDS011;43580;44.014;20.466;2022-07-29T07:44:53;10.88;;;7.15;;
57746;SDS011;43580;44.014;20.466;2022-07-29T07:47:19;12.65;;;7.40;;
57746;SDS011;43580;44.014;20.466;2022-07-29T07:49:49;10.88;;;7.15;;
57746;SDS011;43580;44.014;20.466;2022-07-29T07:52:16;12.50;;;7.75;;
57746;SDS011;43580;44.014;20.466;2022-07-29T07:54:42;8.10;;;6.85;;
57746;SDS011;43580;44.014;20.466;2022-07-29T07:57:09;10.30;;;7.15;;
57746;SDS011;43580;44.014;20.466;2022-07-29T07:59:38;8.57;;;7.40;;
57746;SDS011;43580;44.014;20.466;2022-07-29T08:02:04;12.02;;;6.97;;
57746;SDS011;43580;44.014;20.466;2022-07-29T08:04:31;9.18;;;7.07;;
57746;SDS011;43580;44.014;20.466;2022-07-29T08:06:57;8.48;;;7.32;;
57746;SDS011;43580;44.014;20.466;2022-07-29T08:09:24;9.75;;;6.72;;
57746;SDS011;43580;44.014;20.466;2022-07-29T08:11:51;15.55;;;8.38;;
57746;SDS011;43580;44.014;20.466;2022-07-29T08:14:17;10.57;;;6.88;;
57746;SDS011;43580;44.014;20.466;2022-07-29T08:16:43;9.25;;;6.53;;
57746;SDS011;43580;44.014;20.466;2022-07-29T08:19:09;12.93;;;7.05;;
57746;SDS011;43580;44.014;20.466;2022-07-29T08:21:35;13.75;;;7.40;;
57746;SDS011;43580;44.014;20.466;2022-07-29T08:24:04;10.82;;;7.25;;
57746;SDS011;43580;44.014;20.466;2022-07-29T08:26:49;10.63;;;7.20;;
57746;SDS011;43580;44.014;20.466;2022-07-29T08:29:15;13.52;;;7.22;;
57746;SDS011;43580;44.014;20.466;2022-07-29T08:31:41;12.40;;;7.45;;
57746;SDS011;43580;44.014;20.466;2022-07-29T08:34:07;10.45;;;7.00;;
57746;SDS011;43580;44.014;20.466;2022-07-29T08:36:34;10.95;;;6.68;;
57746;SDS011;43580;44.014;20.466;2022-07-29T08:39:00;13.48;;;7.32;;
57746;SDS011;43580;44.014;20.466;2022-07-29T08:41:26;12.13;;;7.55;;
57746;SDS011;43580;44.014;20.466;2022-07-29T08:43:52;13.52;;;7.35;;
57746;SDS011;43580;44.014;20.466;2022-07-29T08:46:19;17.00;;;7.88;;
57746;SDS011;43580;44.014;20.466;2022-07-29T08:48:45;12.77;;;7.45;;
57746;SDS011;43580;44.014;20.466;2022-07-29T08:51:15;9.52;;;7.55;;
57746;SDS011;43580;44.014;20.466;2022-07-29T08:53:45;8.90;;;6.93;;
57746;SDS011;43580;44.014;20.466;2022-07-29T08:56:13;8.85;;;7.28;;
57746;SDS011;43580;44.014;20.466;2022-07-29T08:58:41;9.20;;;6.90;;
57746;SDS011;43580;44.014;20.466;2022-07-29T09:01:10;8.02;;;6.65;;
57746;SDS011;43580;44.014;20.466;2022-07-29T09:03:37;8.77;;;6.80;;
57746;SDS011;43580;44.014;20.466;2022-07-29T09:06:04;11.82;;;6.90;;
57746;SDS011;43580;44.014;20.466;2022-07-29T09:08:30;9.10;;;7.28;;
57746;SDS011;43580;44.014;20.466;2022-07-29T09:10:57;9.25;;;7.00;;
57746;SDS011;43580;44.014;20.466;2022-07-29T09:13:25;9.45;;;6.93;;
57746;SDS011;43580;44.014;20.466;2022-07-29T09:15:51;10.48;;;7.15;;
57746;SDS011;43580;44.014;20.466;2022-07-29T09:21:14;9.73;;;7.38;;
57746;SDS011;43580;44.014;20.466;2022-07-29T09:24:00;9.63;;;7.53;;
57746;SDS011;43580;44.014;20.466;2022-07-29T09:26:30;11.45;;;7.07;;
57746;SDS011;43580;44.014;20.466;2022-07-29T09:28:56;10.38;;;6.93;;
57746;SDS011;43580;44.014;20.466;2022-07-29T09:31:32;9.30;;;6.93;;
57746;SDS011;43580;44.014;20.466;2022-07-29T09:33:59;10.65;;;7.18;;
57746;SDS011;43580;44.014;20.466;2022-07-29T09:36:25;10.55;;;7.03;;
57746;SDS011;43580;44.014;20.466;2022-07-29T09:39:01;9.30;;;7.40;;
57746;SDS011;43580;44.014;20.466;2022-07-29T09:41:28;9.00;;;7.25;;
57746;SDS011;43580;44.014;20.466;2022-07-29T09:43:58;10.40;;;7.20;;
57746;SDS011;43580;44.014;20.466;2022-07-29T09:46:24;9.70;;;7.55;;
57746;SDS011;43580;44.014;20.466;2022-07-29T09:49:06;9.45;;;6.97;;
57746;SDS011;43580;44.014;20.466;2022-07-29T09:51:33;18.30;;;7.55;;
57746;SDS011;43580;44.014;20.466;2022-07-29T09:54:00;8.60;;;7.20;;
57746;SDS011;43580;44.014;20.466;2022-07-29T09:56:39;9.40;;;6.90;;
57746;SDS011;43580;44.014;20.466;2022-07-29T09:59:06;11.15;;;7.75;;
57746;SDS011;43580;44.014;20.466;2022-07-29T10:01:32;15.10;;;8.13;;
57746;SDS011;43580;44.014;20.466;2022-07-29T10:03:59;9.05;;;7.32;;
57746;SDS011;43580;44.014;20.466;2022-07-29T10:06:26;8.63;;;7.45;;
57746;SDS011;43580;44.014;20.466;2022-07-29T10:08:52;10.50;;;7.40;;
57746;SDS011;43580;44.014;20.466;2022-07-29T10:11:18;10.27;;;7.35;;
57746;SDS011;43580;44.014;20.466;2022-07-29T10:13:46;11.38;;;7.40;;
57746;SDS011;43580;44.014;20.466;2022-07-29T10:16:12;13.48;;;6.78;;
57746;SDS011;43580;44.014;20.466;2022-07-29T10:18:39;9.50;;;7.07;;
57746;SDS011;43580;44.014;20.466;2022-07-29T10:21:06;10.63;;;7.22;;
57746;SDS011;43580;44.014;20.466;2022-07-29T10:23:32;9.00;;;7.43;;
57746;SDS011;43580;44.014;20.466;2022-07-29T10:26:02;10.07;;;7.22;;
57746;SDS011;43580;44.014;20.466;2022-07-29T10:28:30;8.55;;;6.75;;
57746;SDS011;43580;44.014;20.466;2022-07-29T10:31:04;8.80;;;7.22;;
57746;SDS011;43580;44.014;20.466;2022-07-29T10:44:25;9.23;;;7.18;;
57746;SDS011;43580;44.014;20.466;2022-07-29T10:46:45;8.68;;;7.78;;
57746;SDS011;43580;44.014;20.466;2022-07-29T10:49:13;8.15;;;7.28;;
57746;SDS011;43580;44.014;20.466;2022-07-29T10:51:58;11.25;;;7.65;;
57746;SDS011;43580;44.014;20.466;2022-07-29T10:59:39;10.93;;;7.25;;
57746;SDS011;43580;44.014;20.466;2022-07-29T11:07:36;8.73;;;6.85;;
57746;SDS011;43580;44.014;20.466;2022-07-29T11:15:14;13.70;;;7.30;;
57746;SDS011;43580;44.014;20.466;2022-07-29T11:28:54;9.57;;;7.15;;
57746;SDS011;43580;44.014;20.466;2022-07-29T11:31:34;8.23;;;6.70;;
57746;SDS011;43580;44.014;20.466;2022-07-29T11:39:30;16.08;;;7.70;;
57746;SDS011;43580;44.014;20.466;2022-07-29T11:47:59;9.70;;;6.82;;
57746;SDS011;43580;44.014;20.466;2022-07-29T11:52:54;9.35;;;6.57;;
57746;SDS011;43580;44.014;20.466;2022-07-29T11:55:21;9.73;;;6.60;;
57746;SDS011;43580;44.014;20.466;2022-07-29T11:57:52;8.70;;;6.47;;
57746;SDS011;43580;44.014;20.466;2022-07-29T12:00:23;20.90;;;7.40;;
57746;SDS011;43580;44.014;20.466;2022-07-29T12:02:49;7.65;;;5.80;;
57746;SDS011;43580;44.014;20.466;2022-07-29T12:05:16;8.88;;;5.82;;
57746;SDS011;43580;44.014;20.466;2022-07-29T12:07:42;9.27;;;8.38;;
57746;SDS011;43580;44.014;20.466;2022-07-29T12:10:08;5.90;;;5.20;;
57746;SDS011;43580;44.014;20.466;2022-07-29T12:12:35;10.35;;;5.82;;
57746;SDS011;43580;44.014;20.466;2022-07-29T12:15:13;7.45;;;4.60;;
57746;SDS011;43580;44.014;20.466;2022-07-29T12:17:40;4.90;;;3.92;;
57746;SDS011;43580;44.014;20.466;2022-07-29T12:20:07;6.03;;;4.18;;
57746;SDS011;43580;44.014;20.466;2022-07-29T12:22:35;5.57;;;4.60;;
57746;SDS011;43580;44.014;20.466;2022-07-29T12:25:06;7.18;;;5.05;;
57746;SDS011;43580;44.014;20.466;2022-07-29T12:27:34;11.63;;;4.72;;
57746;SDS011;43580;44.014;20.466;2022-07-29T12:30:01;9.38;;;5.18;;
57746;SDS011;43580;44.014;20.466;2022-07-29T12:32:31;7.57;;;5.13;;
57746;SDS011;43580;44.014;20.466;2022-07-29T12:35:02;6.93;;;4.70;;
57746;SDS011;43580;44.014;20.466;2022-07-29T12:37:28;6.15;;;4.97;;
57746;SDS011;43580;44.014;20.466;2022-07-29T12:39:54;6.07;;;4.60;;
57746;SDS011;43580;44.014;20.466;2022-07-29T12:42:21;9.23;;;5.00;;
57746;SDS011;43580;44.014;20.466;2022-07-29T12:44:48;5.15;;;4.65;;
57746;SDS011;43580;44.014;20.466;2022-07-29T12:47:15;5.72;;;4.50;;
57746;SDS011;43580;44.014;20.466;2022-07-29T12:49:41;8.18;;;4.80;;
57746;SDS011;43580;44.014;20.466;2022-07-29T12:52:23;7.22;;;5.30;;
57746;SDS011;43580;44.014;20.466;2022-07-29T12:54:49;5.93;;;4.40;;
57746;SDS011;43580;44.014;20.466;2022-07-29T12:57:16;6.78;;;4.93;;
57746;SDS011;43580;44.014;20.466;2022-07-29T12:59:42;8.85;;;4.53;;
57746;SDS011;43580;44.014;20.466;2022-07-29T13:02:19;6.63;;;4.70;;
57746;SDS011;43580;44.014;20.466;2022-07-29T13:04:54;15.93;;;5.18;;
57746;SDS011;43580;44.014;20.466;2022-07-29T13:07:23;7.35;;;4.57;;
57746;SDS011;43580;44.014;20.466;2022-07-29T13:09:50;5.50;;;4.53;;
57746;SDS011;43580;44.014;20.466;2022-07-29T13:12:16;6.72;;;5.18;;
57746;SDS011;43580;44.014;20.466;2022-07-29T13:17:15;6.93;;;4.40;;
57746;SDS011;43580;44.014;20.466;2022-07-29T13:19:45;4.68;;;4.20;;
57746;SDS011;43580;44.014;20.466;2022-07-29T13:22:13;8.27;;;5.35;;
57746;SDS011;43580;44.014;20.466;2022-07-29T13:27:19;8.68;;;4.80;;
57746;SDS011;43580;44.014;20.466;2022-07-29T13:29:46;6.63;;;4.70;;
57746;SDS011;43580;44.014;20.466;2022-07-29T13:32:12;12.02;;;5.05;;
57746;SDS011;43580;44.014;20.466;2022-07-29T13:34:39;40.78;;;11.52;;
57746;SDS011;43580;44.014;20.466;2022-07-29T13:37:05;12.48;;;5.65;;
57746;SDS011;43580;44.014;20.466;2022-07-29T13:39:31;8.65;;;5.28;;
57746;SDS011;43580;44.014;20.466;2022-07-29T13:41:57;8.88;;;5.30;;
57746;SDS011;43580;44.014;20.466;2022-07-29T13:44:24;8.35;;;5.55;;
57746;SDS011;43580;44.014;20.466;2022-07-29T13:46:50;7.65;;;6.85;;
57746;SDS011;43580;44.014;20.466;2022-07-29T13:49:16;10.25;;;8.23;;
57746;SDS011;43580;44.014;20.466;2022-07-29T13:51:44;6.30;;;5.57;;
57746;SDS011;43580;44.014;20.466;2022-07-29T13:54:10;8.30;;;4.93;;
57746;SDS011;43580;44.014;20.466;2022-07-29T13:56:39;9.43;;;5.43;;
57746;SDS011;43580;44.014;20.466;2022-07-29T13:59:05;6.05;;;4.85;;
57746;SDS011;43580;44.014;20.466;2022-07-29T14:01:32;6.20;;;5.03;;
57746;SDS011;43580;44.014;20.466;2022-07-29T14:03:58;7.30;;;5.18;;
57746;SDS011;43580;44.014;20.466;2022-07-29T14:06:24;8.85;;;5.63;;
57746;SDS011;43580;44.014;20.466;2022-07-29T14:08:50;7.70;;;4.97;;
57746;SDS011;43580;44.014;20.466;2022-07-29T14:11:16;9.80;;;5.57;;
57746;SDS011;43580;44.014;20.466;2022-07-29T14:13:43;5.45;;;4.72;;
57746;SDS011;43580;44.014;20.466;2022-07-29T14:16:09;5.63;;;5.10;;
57746;SDS011;43580;44.014;20.466;2022-07-29T14:18:35;6.20;;;4.85;;
57746;SDS011;43580;44.014;20.466;2022-07-29T14:21:01;5.28;;;4.63;;
57746;SDS011;43580;44.014;20.466;2022-07-29T14:23:27;10.32;;;5.82;;
57746;SDS011;43580;44.014;20.466;2022-07-29T14:25:53;19.45;;;5.50;;
57746;SDS011;43580;44.014;20.466;2022-07-29T14:28:19;6.10;;;5.28;;
57746;SDS011;43580;44.014;20.466;2022-07-29T14:30:48;7.22;;;5.13;;
57746;SDS011;43580;44.014;20.466;2022-07-29T14:33:14;9.07;;;5.03;;
57746;SDS011;43580;44.014;20.466;2022-07-29T14:35:43;7.50;;;5.10;;
57746;SDS011;43580;44.014;20.466;2022-07-29T14:38:09;10.35;;;5.85;;
57746;SDS011;43580;44.014;20.466;2022-07-29T14:40:36;11.48;;;5.20;;
57746;SDS011;43580;44.014;20.466;2022-07-29T14:43:02;11.30;;;5.47;;
57746;SDS011;43580;44.014;20.466;2022-07-29T14:45:29;6.43;;;5.15;;
57746;SDS011;43580;44.014;20.466;2022-07-29T14:47:55;10.02;;;6.80;;
57746;SDS011;43580;44.014;20.466;2022-07-29T14:50:21;8.90;;;5.47;;
57746;SDS011;43580;44.014;20.466;2022-07-29T14:52:51;9.93;;;6.25;;
57746;SDS011;43580;44.014;20.466;2022-07-29T14:55:17;7.40;;;5.95;;
57746;SDS011;43580;44.014;20.466;2022-07-29T14:57:43;6.82;;;5.32;;
57746;SDS011;43580;44.014;20.466;2022-07-29T15:00:09;13.35;;;5.57;;
57746;SDS011;43580;44.014;20.466;2022-07-29T15:02:36;7.93;;;5.65;;
57746;SDS011;43580;44.014;20.466;2022-07-29T15:05:02;7.30;;;5.40;;
57746;SDS011;43580;44.014;20.466;2022-07-29T15:07:31;7.70;;;5.25;;
57746;SDS011;43580;44.014;20.466;2022-07-29T15:09:57;10.18;;;5.18;;
57746;SDS011;43580;44.014;20.466;2022-07-29T15:12:23;7.15;;;5.78;;
57746;SDS011;43580;44.014;20.466;2022-07-29T15:14:49;7.32;;;6.35;;
57746;SDS011;43580;44.014;20.466;2022-07-29T15:17:15;9.13;;;5.90;;
57746;SDS011;43580;44.014;20.466;2022-07-29T15:19:41;7.20;;;5.55;;
57746;SDS011;43580;44.014;20.466;2022-07-29T15:22:07;9.32;;;5.90;;
57746;SDS011;43580;44.014;20.466;2022-07-29T15:24:36;14.43;;;11.43;;
57746;SDS011;43580;44.014;20.466;2022-07-29T15:27:02;6.60;;;4.88;;
57746;SDS011;43580;44.014;20.466;2022-07-29T15:29:28;11.32;;;8.10;;